createdAt,value
2023-04-02T00:05:39.882Z,88.06
2023-04-02T00:15:40.244Z,88.57
2023-04-02T00:25:40.243Z,87.60
2023-04-02T00:35:40.468Z,89.29
2023-04-02T00:45:40.663Z,88.68
2023-04-02T00:55:40.783Z,88.41
2023-04-02T01:05:40.991Z,87.96
2023-04-02T01:15:41.267Z,87.85
2023-04-02T01:25:41.452Z,88.41
2023-04-02T01:35:41.690Z,89.34
2023-04-02T01:45:41.884Z,89.85
2023-04-02T01:55:42.067Z,90.00
2023-04-02T02:05:42.274Z,90.82
2023-04-02T02:15:42.470Z,91.89
2023-04-02T02:25:42.709Z,92.82
2023-04-02T02:35:42.940Z,92.10
2023-04-02T02:45:43.177Z,89.23
2023-04-02T02:55:43.330Z,90.06
2023-04-02T03:05:43.546Z,90.61
2023-04-02T03:15:43.755Z,91.13
2023-04-02T03:25:43.950Z,91.75
2023-04-02T03:35:44.191Z,93.38
2023-04-02T03:45:44.360Z,93.69
2023-04-02T03:55:44.571Z,92.61
2023-04-02T04:05:44.765Z,91.48
2023-04-02T04:15:44.973Z,89.69
2023-04-02T04:25:45.184Z,88.65
2023-04-02T04:35:45.477Z,90.10
2023-04-02T04:45:45.700Z,91.24
2023-04-02T04:55:45.929Z,92.31
2023-04-02T05:05:45.939Z,93.59
2023-04-02T05:15:46.158Z,94.10
2023-04-02T05:25:46.420Z,93.03
2023-04-02T05:35:46.463Z,91.03
2023-04-02T05:45:46.631Z,90.51
2023-04-02T05:55:46.855Z,91.44
2023-04-02T06:05:47.046Z,90.72
2023-04-02T06:15:47.879Z,90.37
2023-04-02T06:25:47.344Z,89.23
2023-04-02T06:35:47.590Z,86.52
2023-04-02T06:45:47.825Z,84.17
2023-04-02T06:55:48.042Z,82.90
2023-04-02T07:05:48.224Z,84.95
2023-04-02T07:15:48.463Z,85.26
2023-04-02T07:25:48.586Z,86.60
2023-04-02T07:35:48.829Z,88.35
2023-04-02T07:45:49.025Z,88.86
2023-04-02T07:55:49.223Z,85.66
2023-04-02T08:05:49.421Z,82.67
2023-04-02T08:15:49.659Z,78.86
2023-04-02T08:25:49.855Z,72.92
2023-04-02T08:35:50.084Z,69.86
2023-04-02T08:45:50.694Z,69.53
2023-04-02T08:55:50.447Z,69.80
2023-04-02T09:05:50.641Z,68.38
2023-04-02T09:15:50.921Z,66.29
2023-04-02T09:26:02.932Z,66.60
2023-04-02T09:35:52.500Z,65.47
2023-04-02T09:45:51.516Z,64.65
2023-04-02T09:55:51.722Z,60.74
2023-04-02T10:05:51.905Z,59.18
2023-04-02T10:15:52.106Z,52.54
2023-04-02T10:25:52.322Z,58.02
2023-04-02T10:35:52.560Z,58.23
2023-04-02T10:45:52.797Z,53.45
2023-04-02T10:55:52.979Z,55.77
2023-04-02T11:05:53.189Z,56.41
2023-04-02T11:15:53.396Z,58.84
2023-04-02T11:25:53.577Z,57.96
2023-04-02T11:35:53.777Z,58.72
2023-04-02T11:45:54.388Z,56.99
2023-04-02T11:55:54.234Z,57.66
2023-04-02T12:05:54.436Z,59.16
2023-04-02T12:15:54.665Z,61.49
2023-04-02T12:25:54.870Z,58.13
2023-04-02T12:35:55.186Z,58.75
2023-04-02T12:45:55.272Z,57.33
2023-04-02T12:55:55.489Z,56.95
2023-04-02T13:05:55.545Z,57.91
2023-04-02T13:15:55.823Z,57.88
2023-04-02T13:25:56.057Z,56.16
2023-04-02T13:35:56.170Z,56.77
2023-04-02T13:45:56.532Z,54.46
2023-04-02T13:55:56.577Z,59.56
2023-04-02T14:05:56.754Z,60.86
2023-04-02T14:15:56.948Z,60.53
2023-04-02T14:25:57.347Z,61.27
2023-04-02T14:35:57.244Z,59.64
2023-04-02T14:45:57.479Z,60.56
2023-04-02T14:55:57.914Z,59.34
2023-04-02T15:05:57.942Z,56.82
2023-04-02T15:15:58.252Z,55.53
2023-04-02T15:25:58.154Z,58.73
2023-04-02T15:35:59.253Z,55.80
2023-04-02T15:45:58.773Z,54.77
2023-04-02T15:55:58.633Z,53.25
2023-04-02T16:05:59.052Z,55.53
2023-04-02T16:15:58.942Z,56.77
2023-04-02T16:25:59.236Z,60.79
2023-04-02T16:35:59.568Z,63.16
2023-04-02T16:45:59.559Z,66.00
2023-04-02T16:55:59.785Z,63.90
2023-04-02T17:05:59.896Z,61.76
2023-04-02T17:16:00.024Z,62.81
2023-04-02T17:25:59.895Z,62.94
2023-04-02T17:36:00.463Z,63.07
2023-04-02T17:46:00.539Z,64.87
2023-04-02T17:56:02.380Z,67.45
2023-04-02T18:06:00.767Z,68.91
2023-04-02T18:16:00.874Z,70.57
2023-04-02T18:26:00.748Z,73.10
2023-04-02T18:36:01.885Z,73.85
2023-04-02T18:46:01.155Z,71.39
2023-04-02T18:56:01.618Z,71.29
2023-04-02T19:06:01.952Z,75.01
2023-04-02T19:16:01.995Z,75.45
2023-04-02T19:26:02.210Z,77.29
2023-04-02T19:36:02.469Z,77.53
2023-04-02T19:46:02.634Z,77.64
2023-04-02T19:56:02.527Z,75.69
2023-04-02T20:06:03.031Z,76.14
2023-04-02T20:16:03.204Z,77.36
2023-04-02T20:26:03.418Z,78.59
2023-04-02T20:36:03.568Z,80.58
2023-04-02T20:46:03.443Z,80.58
2023-04-02T20:56:03.633Z,81.71
2023-04-02T21:06:03.853Z,83.18
2023-04-02T21:16:04.067Z,84.00
2023-04-02T21:26:04.261Z,83.63
2023-04-02T21:36:04.466Z,84.04
2023-04-02T21:46:04.650Z,85.11
2023-04-02T21:56:04.852Z,89.15
2023-04-02T22:06:05.064Z,91.66
2023-04-02T22:16:06.854Z,93.10
2023-04-02T22:26:05.502Z,92.63
2023-04-02T22:36:05.699Z,91.80
2023-04-02T22:46:05.926Z,90.98
2023-04-02T22:56:06.084Z,89.58
2023-04-02T23:06:06.279Z,89.07
2023-04-02T23:16:06.542Z,88.59
2023-04-02T23:26:06.737Z,88.29
2023-04-02T23:36:07.030Z,87.46
2023-04-02T23:46:07.053Z,86.95
2023-04-02T23:56:07.274Z,86.06
